Time;durP1;ratioP1;P1;durP2;ratioP2;P2;SDS_P1;SDS_P2;PMS_P1;PMS_P2;Temp;Humidity;BMP_temperature;BMP_pressure;BME280_temperature;BME280_humidity;BME280_pressure;Samples;Min_cycle;Max_cycle;Signal;HPM_P1;HPM_P2
2022/08/07 00:01:08;;;;;;;13.63;8.77;;;;;;;22.90;59.40;99274.56;5059819;28;20048;-62
2022/08/07 00:03:33;;;;;;;14.80;9.45;;;;;;;22.83;59.44;99276.19;5052307;28;20422;-61
2022/08/07 00:05:59;;;;;;;10.55;8.90;;;;;;;22.82;59.74;99274.56;5051847;28;20495;-61
2022/08/07 00:08:25;;;;;;;13.15;9.43;;;;;;;22.80;59.47;99279.53;5052153;28;20228;-61
2022/08/07 00:10:51;;;;;;;14.32;9.18;;;;;;;22.75;59.78;99272.38;5056088;28;20036;-61
2022/08/07 00:13:19;;;;;;;11.77;9.40;;;;;;;22.73;59.65;99266.50;5072022;28;20041;-61
2022/08/07 00:15:45;;;;;;;15.05;9.48;;;;;;;22.77;59.62;99275.56;5072048;28;20493;-61
2022/08/07 00:18:11;;;;;;;16.02;9.27;;;;;;;22.75;59.51;99271.59;5061646;28;20041;-61
2022/08/07 00:20:37;;;;;;;14.77;9.95;;;;;;;22.72;59.62;99264.13;5055013;28;20041;-61
2022/08/07 00:23:07;;;;;;;11.88;9.90;;;;;;;22.69;59.91;99270.97;5056095;28;20482;-60
2022/08/07 00:25:35;;;;;;;11.25;9.23;;;;;;;22.67;59.69;99271.25;5018016;28;20136;-61
2022/08/07 00:28:01;;;;;;;11.52;8.95;;;;;;;22.67;59.75;99265.84;5038050;28;20040;-61
2022/08/07 00:30:28;;;;;;;11.05;9.23;;;;;;;22.68;59.79;99263.97;5052117;28;20075;-61
2022/08/07 00:32:59;;;;;;;10.30;8.73;;;;;;;22.68;59.59;99266.69;5053807;28;20144;-62
2022/08/07 00:35:26;;;;;;;13.02;9.10;;;;;;;22.65;59.68;99257.31;5007849;28;20045;-61
2022/08/07 00:37:52;;;;;;;13.23;9.75;;;;;;;22.63;60.05;99256.03;5034065;28;20453;-61
2022/08/07 00:40:18;;;;;;;10.38;9.38;;;;;;;22.59;60.19;99253.19;5033869;28;20049;-62
2022/08/07 00:42:44;;;;;;;13.85;9.40;;;;;;;22.56;60.39;99263.81;5062103;28;20106;-61
2022/08/07 00:45:10;;;;;;;11.10;9.40;;;;;;;22.55;60.23;99257.63;5050532;28;20094;-61
2022/08/07 00:47:36;;;;;;;11.48;8.95;;;;;;;22.54;60.05;99258.75;5051700;28;20041;-61
2022/08/07 00:50:03;;;;;;;12.73;9.05;;;;;;;22.54;60.10;99257.94;5050583;28;20482;-61
2022/08/07 00:52:29;;;;;;;12.35;9.57;;;;;;;22.53;60.03;99253.66;5051612;28;20418;-60
2022/08/07 00:54:55;;;;;;;13.00;8.65;;;;;;;22.52;59.73;99254.78;5051296;28;20047;-62
2022/08/07 00:57:24;;;;;;;10.85;8.63;;;;;;;22.50;59.63;99254.28;5051398;28;20047;-60
2022/08/07 00:59:51;;;;;;;11.27;10.10;;;;;;;22.45;59.87;99257.97;5061762;28;20409;-61
2022/08/07 01:02:17;;;;;;;13.13;9.77;;;;;;;22.42;60.11;99262.09;5071311;28;20066;-61
2022/08/07 01:04:42;;;;;;;10.27;9.25;;;;;;;22.41;59.94;99260.50;5070979;28;20045;-60
2022/08/07 01:07:08;;;;;;;10.27;9.15;;;;;;;22.35;60.34;99253.66;5066262;28;20040;-61
2022/08/07 01:09:34;;;;;;;13.63;9.00;;;;;;;22.32;60.23;99253.50;5051108;28;20171;-62
2022/08/07 01:12:00;;;;;;;11.73;8.50;;;;;;;22.31;60.67;99247.31;5070130;28;20033;-61
2022/08/07 01:14:26;;;;;;;12.80;8.98;;;;;;;22.32;60.38;99248.09;5069775;28;20076;-60
2022/08/07 01:16:52;;;;;;;14.60;8.98;;;;;;;22.27;60.83;99257.19;5040056;28;20037;-61
2022/08/07 01:19:20;;;;;;;12.05;9.35;;;;;;;22.28;60.57;99253.34;5053427;28;20392;-60
2022/08/07 01:21:50;;;;;;;9.65;8.73;;;;;;;22.24;60.54;99244.31;5036065;28;20601;-60
2022/08/07 01:24:17;;;;;;;13.63;9.30;;;;;;;22.18;60.67;99254.47;5051433;28;20544;-61
2022/08/07 01:26:43;;;;;;;12.80;8.77;;;;;;;22.14;60.80;99253.47;5052816;28;20051;-60
2022/08/07 01:29:10;;;;;;;12.45;9.07;;;;;;;22.15;60.48;99246.19;5047509;28;20036;-61
2022/08/07 01:31:37;;;;;;;12.68;9.07;;;;;;;22.19;59.98;99244.47;5060443;28;20409;-60
2022/08/07 01:34:04;;;;;;;10.00;7.78;;;;;;;22.16;60.10;99243.16;5051172;28;20373;-61
2022/08/07 01:36:34;;;;;;;14.55;9.38;;;;;;;22.14;60.27;99244.59;5051275;28;20036;-60
2022/08/07 01:39:05;;;;;;;12.25;10.48;;;;;;;22.07;60.52;99241.59;5056390;28;20053;-61
2022/08/07 01:41:31;;;;;;;9.80;8.52;;;;;;;22.04;60.42;99242.22;5035992;28;20461;-62
2022/08/07 01:44:00;;;;;;;12.45;10.45;;;;;;;22.00;60.80;99248.25;5043079;28;20054;-61
2022/08/07 01:46:26;;;;;;;11.40;9.27;;;;;;;21.99;60.91;99251.25;5059310;28;20036;-61
2022/08/07 01:48:52;;;;;;;10.80;9.52;;;;;;;21.97;60.96;99250.75;5077096;28;20509;-60
2022/08/07 01:51:23;;;;;;;11.77;8.70;;;;;;;21.96;61.21;99244.56;5057004;28;20063;-62
2022/08/07 01:53:56;;;;;;;17.80;9.07;;;;;;;21.95;61.14;99250.31;5057181;28;20040;-62
2022/08/07 01:56:25;;;;;;;13.07;9.10;;;;;;;21.95;61.24;99248.41;5059382;28;20079;-61
2022/08/07 01:59:03;;;;;;;11.40;8.70;;;;;;;21.99;61.31;99240.47;5027031;28;20079;-60
2022/08/07 02:01:32;;;;;;;15.05;9.35;;;;;;;22.03;61.19;99240.59;5039925;28;20045;-60
2022/08/07 02:04:02;;;;;;;12.85;8.98;;;;;;;22.07;61.22;99236.97;5057955;28;20039;-60
2022/08/07 02:06:31;;;;;;;12.10;9.55;;;;;;;22.13;61.08;99237.63;5042641;28;20090;-61
2022/08/07 02:09:02;;;;;;;12.10;9.30;;;;;;;22.18;60.99;99235.59;5059684;28;20142;-61
2022/08/07 02:11:29;;;;;;;12.23;9.45;;;;;;;22.29;60.65;99225.22;5061860;28;20051;-61
2022/08/07 02:13:57;;;;;;;12.55;10.05;;;;;;;22.41;60.34;99230.81;5042596;28;20075;-62
2022/08/07 02:16:25;;;;;;;12.05;8.90;;;;;;;22.56;60.01;99229.50;5033567;28;20033;-60
2022/08/07 02:18:51;;;;;;;12.10;8.73;;;;;;;22.71;59.22;99227.38;5049412;28;20048;-60
2022/08/07 02:21:18;;;;;;;12.40;9.02;;;;;;;22.89;58.60;99232.44;5022794;28;20051;-61
2022/08/07 02:23:44;;;;;;;12.15;9.90;;;;;;;23.07;58.10;99232.41;5003057;28;20053;-61
2022/08/07 02:26:10;;;;;;;11.27;9.20;;;;;;;23.23;57.46;99230.75;5003051;28;20045;-61
2022/08/07 02:28:36;;;;;;;10.77;8.38;;;;;;;23.44;56.82;99230.81;5036083;28;20061;-62
2022/08/07 02:31:05;;;;;;;12.95;9.07;;;;;;;23.64;56.05;99225.75;5019268;28;20096;-60
2022/08/07 02:33:32;;;;;;;12.23;9.10;;;;;;;23.85;55.43;99232.00;5037297;28;20494;-61
2022/08/07 02:36:00;;;;;;;11.15;8.63;;;;;;;24.05;55.04;99235.06;5023118;28;20095;-60
2022/08/07 02:38:32;;;;;;;11.93;9.00;;;;;;;24.24;54.70;99229.97;5039721;28;20424;-60
2022/08/07 02:41:01;;;;;;;12.30;8.63;;;;;;;24.47;54.29;99236.63;5023057;28;20044;-59
2022/08/07 02:43:28;;;;;;;13.50;8.38;;;;;;;24.70;53.25;99241.66;5022542;28;20045;-60
2022/08/07 02:45:56;;;;;;;13.88;8.48;;;;;;;24.91;52.79;99244.28;5039384;28;20103;-61
2022/08/07 02:48:24;;;;;;;12.07;8.93;;;;;;;25.09;51.90;99242.97;5052393;28;20067;-59
2022/08/07 02:50:53;;;;;;;12.90;8.88;;;;;;;25.25;51.59;99240.41;5066017;28;20121;-62
2022/08/07 02:53:33;;;;;;;14.80;8.85;;;;;;;25.31;51.08;99247.19;5054060;28;20094;-61
2022/08/07 02:56:00;;;;;;;8.73;7.82;;;;;;;25.38;51.27;99244.72;5055102;28;20032;-59
2022/08/07 02:58:27;;;;;;;9.60;8.25;;;;;;;25.60;50.75;99243.47;5049094;28;20083;-60
2022/08/07 03:00:55;;;;;;;9.80;8.02;;;;;;;25.86;49.84;99247.75;5053661;28;20045;-60
2022/08/07 03:03:22;;;;;;;14.88;8.98;;;;;;;26.07;49.30;99250.31;5036073;28;20041;-60
2022/08/07 03:05:51;;;;;;;12.68;8.65;;;;;;;26.28;48.73;99247.41;5032591;28;20040;-60
2022/08/07 03:08:18;;;;;;;11.82;7.60;;;;;;;26.50;48.15;99246.06;5035930;28;20068;-61
2022/08/07 03:10:47;;;;;;;11.43;7.75;;;;;;;26.67;47.95;99242.25;5052603;28;20452;-60
2022/08/07 03:13:16;;;;;;;11.43;8.20;;;;;;;26.90;47.36;99245.97;5037144;28;20056;-61
2022/08/07 03:15:42;;;;;;;11.85;7.65;;;;;;;27.08;46.81;99253.78;5053885;28;20053;-61
2022/08/07 03:18:08;;;;;;;14.00;7.97;;;;;;;27.11;46.41;99248.44;5051683;28;20063;-60
2022/08/07 03:20:38;;;;;;;10.98;7.90;;;;;;;27.28;45.77;99250.03;5037018;28;20045;-60
2022/08/07 03:23:04;;;;;;;11.95;7.63;;;;;;;27.33;45.95;99251.72;5041485;28;20269;-59
2022/08/07 03:25:31;;;;;;;11.73;8.40;;;;;;;27.44;45.52;99257.41;5047314;28;20511;-60
2022/08/07 03:28:18;;;;;;;13.65;8.13;;;;;;;27.67;45.47;99241.19;5025302;28;20417;-60
2022/08/07 03:30:45;;;;;;;10.82;7.45;;;;;;;27.80;45.36;99239.97;5038552;28;20043;-60
2022/08/07 03:33:11;;;;;;;9.13;7.30;;;;;;;27.96;44.65;99251.59;5055431;28;20048;-60
2022/08/07 03:35:38;;;;;;;12.52;7.53;;;;;;;28.08;44.33;99247.94;5053797;28;20149;-61
2022/08/07 03:38:06;;;;;;;8.35;7.45;;;;;;;28.21;43.70;99252.13;5036985;28;20048;-59
2022/08/07 03:40:32;;;;;;;13.32;7.78;;;;;;;28.29;43.61;99248.38;5035141;28;20041;-60
2022/08/07 03:42:59;;;;;;;11.93;7.53;;;;;;;28.42;43.66;99259.19;5039969;28;20497;-60
2022/08/07 03:45:27;;;;;;;12.60;7.03;;;;;;;28.36;43.49;99249.69;5055089;28;20047;-60
2022/08/07 03:47:53;;;;;;;12.43;7.15;;;;;;;28.42;43.41;99248.28;5037546;28;20655;-60
2022/08/07 03:50:23;;;;;;;10.70;7.57;;;;;;;28.51;42.83;99252.34;5070046;28;20113;-60
2022/08/07 03:52:52;;;;;;;8.65;7.28;;;;;;;28.50;43.11;99249.97;5050917;28;20546;-61
2022/08/07 03:55:19;;;;;;;10.43;7.32;;;;;;;28.42;43.09;99249.06;5054528;28;20093;-60
2022/08/07 03:57:46;;;;;;;8.98;6.50;;;;;;;28.37;43.38;99243.06;5069137;28;20044;-60
2022/08/07 04:00:13;;;;;;;10.48;7.28;;;;;;;28.53;42.88;99250.06;5037963;28;20044;-61
2022/08/07 04:02:43;;;;;;;10.20;7.65;;;;;;;28.52;43.26;99239.50;5052636;28;20540;-60
2022/08/07 04:05:10;;;;;;;7.95;7.15;;;;;;;28.48;43.47;99250.34;5037940;28;20052;-60
2022/08/07 04:07:37;;;;;;;9.20;7.47;;;;;;;28.53;42.69;99243.78;5050930;28;20040;-61
2022/08/07 04:10:03;;;;;;;7.95;6.60;;;;;;;28.64;42.41;99242.06;5051054;28;20044;-61
2022/08/07 04:12:30;;;;;;;8.85;6.60;;;;;;;28.71;42.02;99239.47;5034498;28;20040;-60
2022/08/07 04:14:57;;;;;;;10.38;7.03;;;;;;;28.70;42.49;99242.53;5018643;28;20048;-60
2022/08/07 04:17:23;;;;;;;18.35;6.78;;;;;;;28.93;42.49;99245.28;5018106;28;20037;-60
2022/08/07 04:19:52;;;;;;;;;;;;;;;29.10;41.75;99246.78;5059337;28;20566;-59
2022/08/07 04:22:18;;;;;;;12.98;6.93;;;;;;;29.11;41.63;99243.66;5051988;28;20023;-61
2022/08/07 04:24:45;;;;;;;7.85;6.10;;;;;;;29.13;41.99;99244.09;5049143;28;20067;-60
2022/08/07 04:27:12;;;;;;;7.88;6.28;;;;;;;29.28;41.41;99249.78;5058992;28;20441;-60
2022/08/07 04:29:38;;;;;;;9.55;6.50;;;;;;;29.40;41.51;99247.63;5054522;28;20048;-60
2022/08/07 04:32:05;;;;;;;7.55;6.80;;;;;;;29.61;40.93;99252.63;5071145;28;20124;-60
2022/08/07 04:34:31;;;;;;;7.97;6.50;;;;;;;29.55;40.98;99251.38;5037451;28;20064;-60
2022/08/07 04:36:57;;;;;;;10.38;6.72;;;;;;;29.71;41.09;99253.97;5037695;28;20185;-59
2022/08/07 04:39:23;;;;;;;10.13;6.38;;;;;;;29.79;40.44;99261.09;5072170;28;20036;-61
2022/08/07 04:41:48;;;;;;;7.28;6.10;;;;;;;30.01;40.89;99253.97;5037518;28;20051;-61
2022/08/07 04:44:15;;;;;;;10.27;6.53;;;;;;;30.10;40.15;99261.91;5054201;28;20041;-61
2022/08/07 04:47:15;;;;;;;10.75;7.03;;;;;;;30.25;39.71;99251.94;5052859;28;20051;-61
2022/08/07 04:49:52;;;;;;;7.63;6.55;;;;;;;30.23;40.47;99265.97;5067764;28;20048;-61
2022/08/07 04:52:24;;;;;;;10.38;6.68;;;;;;;30.39;39.93;99265.78;5037362;28;20052;-61
2022/08/07 04:55:03;;;;;;;8.27;6.63;;;;;;;30.39;39.56;99265.00;5053738;28;20401;-59
2022/08/07 04:57:52;;;;;;;8.45;6.53;;;;;;;30.19;39.53;99256.94;5037710;28;20098;-60
2022/08/07 05:00:24;;;;;;;12.43;6.93;;;;;;;29.73;40.94;99254.38;5053707;28;20501;-61
2022/08/07 05:02:59;;;;;;;12.77;8.00;;;;;;;29.49;40.87;99255.56;5037359;28;20060;-61
2022/08/07 05:05:32;;;;;;;12.05;7.47;;;;;;;29.30;41.70;99252.94;5048806;28;20498;-61
2022/08/07 05:08:13;;;;;;;12.50;7.53;;;;;;;29.18;42.14;99245.75;5061414;28;20060;-60
2022/08/07 05:10:47;;;;;;;11.75;7.40;;;;;;;29.18;42.11;99253.94;5031244;28;20053;-60
2022/08/07 05:13:27;;;;;;;14.10;7.47;;;;;;;29.40;41.89;99255.81;5026399;28;20044;-61
2022/08/07 05:15:54;;;;;;;11.80;7.13;;;;;;;29.58;42.09;99277.16;5053742;28;20091;-61
2022/08/07 05:18:33;;;;;;;8.93;6.63;;;;;;;29.53;41.30;99270.09;5020746;28;20040;-61
2022/08/07 05:21:03;;;;;;;;;;;;;;;29.32;41.68;99258.81;5037319;28;20563;-61
2022/08/07 05:23:59;;;;;;;;;;;;;;;29.29;41.82;99265.78;5037268;28;19924;-60
2022/08/07 05:26:28;;;;;;;9.02;7.10;;;;;;;29.25;42.52;99264.94;5026702;28;19920;-61
2022/08/07 05:29:03;;;;;;;11.02;7.22;;;;;;;29.04;42.88;99267.34;5034572;28;20402;-61
2022/08/07 05:31:32;;;;;;;10.85;7.75;;;;;;;28.86;43.62;99267.78;5033387;28;20095;-61
2022/08/07 05:34:01;;;;;;;8.77;6.85;;;;;;;28.74;43.57;99276.94;5033714;28;20049;-62
2022/08/07 05:36:27;;;;;;;8.85;6.97;;;;;;;28.71;43.84;99280.38;5017190;28;20061;-61
2022/08/07 05:38:54;;;;;;;11.30;7.47;;;;;;;28.75;44.19;99280.44;5050099;28;20191;-60
2022/08/07 05:41:20;;;;;;;7.97;7.20;;;;;;;28.80;43.64;99277.41;5000360;28;20068;-60
2022/08/07 05:43:50;;;;;;;9.70;6.80;;;;;;;28.82;43.56;99271.59;5000908;28;20052;-67
2022/08/07 05:46:18;;;;;;;11.85;7.40;;;;;;;28.72;43.27;99276.50;5033531;28;20188;-61
2022/08/07 05:48:44;;;;;;;11.57;7.13;;;;;;;28.67;43.24;99274.06;5016857;28;20061;-61
2022/08/07 05:51:10;;;;;;;8.73;7.60;;;;;;;28.72;43.28;99276.50;5033310;28;20060;-61
2022/08/07 05:53:36;;;;;;;9.00;7.03;;;;;;;28.68;43.44;99272.91;5000590;28;20498;-59
2022/08/07 05:56:04;;;;;;;8.00;7.20;;;;;;;28.65;44.20;99270.09;5017062;28;20063;-60
2022/08/07 05:58:32;;;;;;;10.73;7.13;;;;;;;28.71;44.29;99272.19;5017449;28;20085;-65
2022/08/07 06:00:59;;;;;;;10.93;7.13;;;;;;;28.80;43.98;99273.91;5039499;28;20040;-61
2022/08/07 06:03:25;;;;;;;11.45;7.15;;;;;;;28.84;43.75;99272.81;5053315;28;20512;-61
2022/08/07 06:05:52;;;;;;;9.50;7.28;;;;;;;28.86;43.95;99273.25;5052925;28;20144;-60
2022/08/07 06:08:18;;;;;;;10.63;7.40;;;;;;;28.85;43.35;99276.31;5020032;28;20044;-62
2022/08/07 06:10:44;;;;;;;8.57;6.80;;;;;;;28.79;43.69;99280.50;5036438;28;20449;-63
2022/08/07 06:13:10;;;;;;;8.95;6.80;;;;;;;28.76;43.99;99277.34;5036436;28;20036;-62
2022/08/07 06:15:39;;;;;;;9.05;7.22;;;;;;;28.79;44.35;99273.09;5052894;28;20478;-60
2022/08/07 06:18:05;;;;;;;10.50;7.35;;;;;;;28.81;43.76;99275.47;5069282;28;20036;-61
2022/08/07 06:20:34;;;;;;;8.65;7.18;;;;;;;28.80;43.43;99276.63;5052948;28;20053;-62
2022/08/07 06:23:01;;;;;;;10.85;7.50;;;;;;;28.82;44.04;99274.31;5072987;28;20044;-61
2022/08/07 06:25:34;;;;;;;13.35;7.80;;;;;;;28.84;43.84;99270.06;5040009;28;20055;-60
2022/08/07 06:28:04;;;;;;;12.48;7.50;;;;;;;28.86;44.14;99278.69;5056820;28;20173;-61
2022/08/07 06:30:31;;;;;;;11.75;7.13;;;;;;;28.87;44.00;99272.09;5056715;28;20478;-61
2022/08/07 06:32:58;;;;;;;8.55;7.28;;;;;;;28.91;43.93;99274.88;5056701;28;20386;-61
2022/08/07 06:35:24;;;;;;;10.38;6.70;;;;;;;28.97;44.06;99281.59;5053655;28;20079;-62
2022/08/07 06:37:49;;;;;;;9.38;7.60;;;;;;;28.98;43.73;99273.06;5036205;28;20073;-62
2022/08/07 06:40:16;;;;;;;8.07;6.70;;;;;;;29.02;43.70;99281.34;5036225;28;20055;-62
2022/08/07 06:42:47;;;;;;;14.93;7.13;;;;;;;29.13;43.74;99273.34;5027155;28;20093;-61
2022/08/07 06:45:22;;;;;;;10.15;7.13;;;;;;;29.20;43.61;99274.22;5040482;28;20191;-62
2022/08/07 06:47:54;;;;;;;10.82;6.60;;;;;;;29.33;43.12;99274.06;5020578;28;20047;-62
2022/08/07 06:50:20;;;;;;;10.50;6.88;;;;;;;29.34;43.11;99272.88;5036659;28;20072;-61
2022/08/07 06:52:49;;;;;;;11.23;6.72;;;;;;;29.37;43.02;99283.88;5035836;28;20044;-60
2022/08/07 06:55:25;;;;;;;10.55;6.93;;;;;;;29.36;43.71;99286.97;5053541;28;20102;-60
2022/08/07 06:57:52;;;;;;;11.85;7.13;;;;;;;29.40;42.66;99279.63;5066152;28;20040;-60
2022/08/07 07:00:22;;;;;;;10.50;6.90;;;;;;;29.54;42.53;99281.78;5039349;28;20413;-60
2022/08/07 07:02:47;;;;;;;12.18;7.78;;;;;;;29.59;41.79;99284.19;5071747;28;20048;-61
2022/08/07 07:05:13;;;;;;;11.02;6.82;;;;;;;29.89;41.69;99278.81;5042310;28;20091;-61
2022/08/07 07:07:39;;;;;;;12.43;7.53;;;;;;;30.19;41.07;99280.75;5051265;28;20073;-60
2022/08/07 07:10:05;;;;;;;9.73;6.80;;;;;;;30.14;41.76;99287.31;5053397;28;20139;-61
2022/08/07 07:12:40;;;;;;;9.02;6.57;;;;;;;30.41;40.51;99282.59;5035460;28;20131;-65
2022/08/07 07:15:15;;;;;;;11.95;6.80;;;;;;;30.58;40.13;99280.44;5054398;28;20041;-61
2022/08/07 07:18:02;;;;;;;14.88;6.97;;;;;;;30.53;40.19;99284.28;5035854;28;20052;-62
2022/08/07 07:20:41;;;;;;;10.23;6.00;;;;;;;30.39;39.46;99292.34;5035804;28;20052;-61
2022/08/07 07:23:07;;;;;;;9.20;5.88;;;;;;;30.24;40.00;99292.19;5037576;28;20040;-60
2022/08/07 07:25:34;;;;;;;17.17;6.75;;;;;;;30.14;40.73;99297.47;5027734;28;20037;-62
2022/08/07 07:28:05;;;;;;;10.90;6.68;;;;;;;30.00;40.83;99295.34;5026580;28;20033;-63
2022/08/07 07:30:34;;;;;;;13.27;7.30;;;;;;;29.89;42.38;99287.00;5052057;28;20057;-62
2022/08/07 07:33:01;;;;;;;14.23;7.43;;;;;;;29.94;42.32;99292.13;5057279;28;20102;-63
2022/08/07 07:35:27;;;;;;;9.45;7.82;;;;;;;29.84;42.61;99290.84;5034286;28;20579;-62
2022/08/07 07:37:54;;;;;;;11.07;6.70;;;;;;;29.98;41.91;99297.66;5062546;28;20054;-61
2022/08/07 07:40:21;;;;;;;8.43;6.50;;;;;;;30.03;41.85;99300.88;5055337;28;20691;-62
2022/08/07 07:42:50;;;;;;;10.73;6.85;;;;;;;30.05;41.93;99298.53;5053327;28;20032;-61
2022/08/07 07:45:18;;;;;;;10.05;7.65;;;;;;;30.02;43.09;99301.22;5053946;28;20522;-60
2022/08/07 07:47:44;;;;;;;11.25;6.95;;;;;;;29.90;42.20;99299.50;5055225;28;20045;-61
2022/08/07 07:50:12;;;;;;;9.98;6.70;;;;;;;29.86;41.52;99294.00;5072908;28;20151;-61
2022/08/07 07:52:38;;;;;;;7.95;6.82;;;;;;;29.96;41.53;99291.78;5054087;28;20040;-61
2022/08/07 07:55:05;;;;;;;9.50;6.95;;;;;;;30.02;41.63;99295.75;5072801;28;20060;-61
2022/08/07 07:57:32;;;;;;;8.38;7.22;;;;;;;29.92;41.27;99301.88;5055106;28;20036;-60
2022/08/07 07:59:59;;;;;;;12.35;7.13;;;;;;;29.85;41.75;99313.47;5054619;28;20418;-62
2022/08/07 08:02:26;;;;;;;9.38;6.78;;;;;;;29.93;41.00;99298.75;5072744;28;20048;-62
2022/08/07 08:04:53;;;;;;;8.85;6.78;;;;;;;29.98;40.76;99305.88;5072775;28;20398;-61
2022/08/07 08:07:18;;;;;;;9.50;6.88;;;;;;;30.10;40.89;99308.38;5054851;28;20067;-60
2022/08/07 08:09:46;;;;;;;8.43;7.63;;;;;;;30.17;41.57;99304.94;5072780;28;20090;-61
2022/08/07 08:12:12;;;;;;;11.13;7.95;;;;;;;30.28;41.57;99308.63;5038200;28;20079;-62
2022/08/07 08:14:38;;;;;;;10.10;8.60;;;;;;;30.30;42.17;99309.06;5054541;28;20079;-61
2022/08/07 08:17:06;;;;;;;11.70;8.80;;;;;;;30.36;41.85;99301.31;5071447;28;20063;-62
2022/08/07 08:19:33;;;;;;;9.55;8.35;;;;;;;30.29;42.25;99296.50;5054494;28;20263;-62
2022/08/07 08:27:34;;;;;;;11.23;9.15;;;;;;;30.13;42.45;99293.19;5057238;28;20060;-61
2022/08/07 08:30:08;;;;;;;11.97;9.07;;;;;;;30.10;43.10;99294.69;5054614;28;20044;-61
2022/08/07 08:32:44;;;;;;;14.40;9.45;;;;;;;30.14;43.06;99289.28;5072245;28;20047;-61
2022/08/07 08:35:12;;;;;;;9.93;8.88;;;;;;;30.12;42.98;99284.19;5054189;28;20190;-61
2022/08/07 08:37:40;;;;;;;12.10;9.65;;;;;;;30.15;43.51;99288.09;5054064;28;20094;-61
2022/08/07 08:40:09;;;;;;;12.52;8.82;;;;;;;30.16;43.12;99278.75;5054320;28;20033;-61
2022/08/07 08:42:40;;;;;;;10.75;8.82;;;;;;;30.16;42.81;99271.34;5053868;28;20041;-62
2022/08/07 08:45:22;;;;;;;12.85;9.10;;;;;;;30.11;42.98;99268.94;5054102;28;20041;-61
2022/08/07 08:47:54;;;;;;;9.80;8.80;;;;;;;29.99;43.34;99261.75;5053731;28;20075;-60
2022/08/07 08:50:31;;;;;;;13.45;8.82;;;;;;;29.97;43.10;99266.00;5071909;28;20063;-62
2022/08/07 08:53:19;;;;;;;10.20;9.20;;;;;;;29.86;43.77;99257.69;5054038;28;20032;-59
2022/08/07 08:55:52;;;;;;;12.50;8.50;;;;;;;29.89;43.97;99265.16;5071653;28;20064;-60
2022/08/07 08:58:46;;;;;;;9.73;8.82;;;;;;;29.80;44.18;99257.22;5053933;28;20048;-59
2022/08/07 09:01:43;;;;;;;20.83;14.95;;;;;;;29.89;43.93;99259.69;5071628;28;20098;-61
2022/08/07 09:04:27;;;;;;;11.65;9.13;;;;;;;30.00;44.36;99260.63;5070275;28;20132;-60
2022/08/07 09:07:10;;;;;;;17.05;9.85;;;;;;;30.07;44.34;99260.69;5053660;28;20043;-61
2022/08/07 09:09:42;;;;;;;13.48;9.02;;;;;;;30.18;43.47;99262.75;5036979;28;20218;-60
2022/08/07 09:12:37;;;;;;;12.15;9.30;;;;;;;29.95;44.02;99251.94;5070201;28;20037;-61
2022/08/07 09:15:24;;;;;;;10.60;9.32;;;;;;;29.73;44.52;99246.19;5053972;28;20043;-59
2022/08/07 09:17:59;;;;;;;11.38;9.30;;;;;;;29.74;44.07;99253.25;5071648;28;20044;-60
2022/08/07 09:20:37;;;;;;;10.20;9.07;;;;;;;29.85;43.83;99242.44;5071553;28;20044;-62
2022/08/07 09:23:29;;;;;;;10.07;8.93;;;;;;;29.98;44.07;99248.47;5071627;28;20044;-60
2022/08/07 09:26:10;;;;;;;12.10;9.40;;;;;;;30.23;43.57;99246.06;5063223;28;20076;-62
2022/08/07 09:28:43;;;;;;;14.65;9.82;;;;;;;30.30;43.68;99229.75;5071222;28;20043;-62
2022/08/07 09:31:16;;;;;;;10.20;8.98;;;;;;;30.47;43.25;99236.56;5071352;28;20045;-61
2022/08/07 09:33:56;;;;;;;13.00;9.00;;;;;;;30.54;42.71;99221.03;5071091;28;20052;-62
2022/08/07 09:36:51;;;;;;;15.95;8.43;;;;;;;30.45;41.60;99212.34;5071175;28;20074;-62
2022/08/07 09:39:32;;;;;;;9.88;8.02;;;;;;;30.51;40.87;99205.38;5071170;28;20138;-60
2022/08/07 09:41:57;;;;;;;11.18;8.27;;;;;;;30.47;41.00;99207.28;5071070;28;20036;-62
2022/08/07 09:44:35;;;;;;;14.85;8.40;;;;;;;30.31;40.54;99202.03;5070938;28;20044;-61
2022/08/07 09:47:23;;;;;;;12.32;7.78;;;;;;;30.27;40.79;99192.22;5069900;28;20055;-61
2022/08/07 09:50:00;;;;;;;14.60;8.00;;;;;;;30.25;40.25;99189.06;5069796;28;20067;-62
2022/08/07 09:52:29;;;;;;;13.15;7.88;;;;;;;30.22;40.29;99200.75;5053066;28;20099;-61
2022/08/07 09:55:06;;;;;;;11.45;8.15;;;;;;;30.25;40.89;99198.06;5070687;28;20052;-62
2022/08/07 09:57:48;;;;;;;13.23;8.35;;;;;;;30.39;40.87;99189.22;5072335;28;20123;-63
2022/08/07 10:00:15;;;;;;;13.88;8.65;;;;;;;30.47;40.66;99184.59;5074822;28;20386;-61
2022/08/07 10:02:59;;;;;;;13.02;7.38;;;;;;;30.48;40.49;99189.72;5040205;28;20044;-62
2022/08/07 10:06:02;;;;;;;12.23;7.70;;;;;;;30.52;39.83;99185.03;5075166;28;20292;-62
2022/08/07 10:08:54;;;;;;;9.48;6.97;;;;;;;30.61;38.61;99197.63;5056786;28;20056;-61
2022/08/07 10:11:54;;;;;;;10.73;6.75;;;;;;;30.64;38.87;99210.56;5075015;28;20482;-62
2022/08/07 10:14:57;;;;;;;10.82;7.30;;;;;;;30.67;38.88;99212.53;5056747;28;20055;-62
2022/08/07 10:17:35;;;;;;;8.43;7.15;;;;;;;30.75;39.32;99205.97;5074597;28;20041;-63
2022/08/07 10:20:28;;;;;;;11.32;6.88;;;;;;;30.77;39.46;99231.81;5074826;28;20059;-63
2022/08/07 10:23:28;;;;;;;18.85;6.57;;;;;;;30.32;40.36;99222.72;5074438;28;20131;-61
2022/08/07 10:26:28;;;;;;;15.25;6.60;;;;;;;29.77;41.70;99221.66;5073162;28;20063;-62
2022/08/07 10:29:17;;;;;;;19.50;6.03;;;;;;;29.49;42.06;99231.00;5057020;28;20214;-61
2022/08/07 10:32:06;;;;;;;12.25;5.90;;;;;;;28.83;43.56;99233.06;5045624;28;20102;-61
2022/08/07 10:34:38;;;;;;;23.80;6.15;;;;;;;28.02;45.36;99230.31;5074759;28;20041;-61
2022/08/07 10:37:22;;;;;;;8.38;5.15;;;;;;;27.33;47.08;99238.13;5074504;28;20512;-59
2022/08/07 10:40:02;;;;;;;6.32;5.22;;;;;;;27.08;48.11;99238.25;5074257;28;20189;-62
2022/08/07 10:42:51;;;;;;;6.60;5.15;;;;;;;27.01;48.12;99246.25;5074447;28;20093;-61
2022/08/07 10:45:23;;;;;;;7.28;5.30;;;;;;;26.86;48.71;99255.19;5039812;28;20048;-64
2022/08/07 10:47:58;;;;;;;6.97;5.15;;;;;;;26.81;49.33;99241.84;5074412;28;20108;-61
2022/08/07 10:50:46;;;;;;;5.68;5.15;;;;;;;26.66;49.73;99232.53;5056161;28;20249;-61
2022/08/07 10:53:53;;;;;;;6.45;5.35;;;;;;;26.41;49.65;99234.53;5056128;28;20067;-62
2022/08/07 10:56:35;;;;;;;6.20;4.88;;;;;;;26.10;50.86;99241.47;5011906;28;20116;-61
2022/08/07 10:59:11;;;;;;;8.18;5.30;;;;;;;25.93;51.30;99233.59;4995602;28;20065;-61
2022/08/07 11:01:53;;;;;;;8.65;4.85;;;;;;;25.81;51.41;99245.25;5024792;28;20079;-61
2022/08/07 11:04:43;;;;;;;7.43;4.93;;;;;;;25.80;51.56;99252.59;5072828;28;20131;-60
2022/08/07 11:07:18;;;;;;;7.07;5.28;;;;;;;25.86;51.64;99249.69;5073803;28;20048;-62
2022/08/07 11:09:48;;;;;;;8.18;5.13;;;;;;;25.84;51.75;99255.44;5072384;28;20056;-61
2022/08/07 11:12:21;;;;;;;9.15;5.78;;;;;;;25.88;51.68;99272.63;5056017;28;20040;-62
2022/08/07 11:15:08;;;;;;;7.60;5.55;;;;;;;25.96;51.58;99271.72;5055847;28;20516;-61
2022/08/07 11:17:37;;;;;;;7.40;5.82;;;;;;;25.91;52.13;99274.66;5055732;28;20294;-60
2022/08/07 11:20:41;;;;;;;10.15;5.90;;;;;;;25.92;52.11;99273.53;5073821;28;20045;-62
2022/08/07 11:23:22;;;;;;;9.57;6.50;;;;;;;25.92;52.02;99272.75;5055395;28;20126;-61
2022/08/07 11:25:54;;;;;;;8.07;6.88;;;;;;;25.95;52.11;99291.06;5073366;28;20076;-61
2022/08/07 11:28:27;;;;;;;8.05;6.35;;;;;;;25.79;52.79;99307.22;5055713;28;20083;-62
2022/08/07 11:31:03;;;;;;;14.68;7.65;;;;;;;25.61;53.60;99326.44;5038962;28;20163;-61
2022/08/07 11:33:46;;;;;;;7.28;6.22;;;;;;;25.28;54.85;99323.84;5055502;28;20106;-62
2022/08/07 11:36:22;;;;;;;26.80;6.97;;;;;;;24.82;54.42;99316.78;5055259;28;20478;-61
2022/08/07 11:38:49;;;;;;;30.40;7.20;;;;;;;24.15;63.84;99326.72;5073463;28;20052;-62
2022/08/07 11:41:20;;;;;;;16.35;7.53;;;;;;;23.21;69.80;99297.09;5071876;28;20045;-61
2022/08/07 11:44:00;;;;;;;11.93;8.10;;;;;;;22.59;70.26;99303.69;5073237;28;20421;-61
2022/08/07 11:46:47;;;;;;;10.88;8.00;;;;;;;22.22;70.98;99297.81;5055057;28;20041;-62
2022/08/07 11:49:41;;;;;;;11.63;8.80;;;;;;;22.11;70.19;99285.72;5072888;28;20060;-61
2022/08/07 11:53:08;;;;;;;13.13;9.50;;;;;;;22.11;69.84;99296.50;5073332;28;20048;-61
2022/08/07 11:55:55;;;;;;;10.82;8.77;;;;;;;22.00;70.90;99296.00;4977052;28;20055;-61
2022/08/07 11:58:31;;;;;;;12.35;8.88;;;;;;;21.82;69.87;99292.50;5055107;28;20048;-61